Austinville, Virginia
Current Conditions -  °F | °C
As of 4:35 PM on Friday 24 Oct 2014 (Local Time) from KHLX Reporting Station
Clear Clear  
Wind Chill: 16°   Ceiling: Unl
Heat Index: 16°   Visibility: 10mi
Dew Point:   Wind: 0mph
Humidity: 44%   Direction: NA
Pressure: 30.02"   Gusts: NA
Location:  36.85°N, 80.91°W
Report Text: KHLX 242035Z AUTO 00000KT 10SM CLR 16/04 A3002 RMK AO2 T01630040
Loading
Personal Weather Stations






























Interactive Weather Map New forecast layout! Learn more

10-Day Weather Forecast

Advertisements
Track Severe Weather on mobile